createdAt,value
2022-09-16T00:01:33.993Z,10.30
2022-09-16T00:04:04.444Z,9.27
2022-09-16T00:06:34.756Z,9.70
2022-09-16T00:09:07.273Z,9.87
2022-09-16T00:11:37.281Z,8.80
2022-09-16T00:14:08.001Z,8.67
2022-09-16T00:16:38.044Z,10.23
2022-09-16T00:19:08.014Z,9.43
2022-09-16T00:21:38.015Z,9.70
2022-09-16T00:24:14.115Z,10.03
2022-09-16T00:26:44.154Z,10.17
2022-09-16T00:29:14.518Z,10.83
2022-09-16T00:31:44.531Z,9.97
2022-09-16T00:34:14.526Z,10.20
2022-09-16T00:36:44.491Z,9.90
2022-09-16T00:39:17.036Z,10.57
2022-09-16T00:41:47.352Z,10.47
2022-09-16T00:44:57.947Z,9.70
2022-09-16T00:47:35.891Z,8.80
2022-09-16T00:50:12.254Z,9.20
2022-09-16T00:52:43.801Z,10.90
2022-09-16T00:55:21.249Z,9.73
2022-09-16T00:57:52.245Z,9.97
2022-09-16T01:00:22.358Z,11.47
2022-09-16T01:02:54.173Z,9.80
2022-09-16T01:05:28.927Z,9.70
2022-09-16T01:07:59.434Z,10.40
2022-09-16T01:10:32.043Z,9.97
2022-09-16T01:13:07.564Z,10.30
2022-09-16T01:15:48.740Z,9.50
2022-09-16T01:18:34.337Z,9.90
2022-09-16T01:21:25.415Z,10.03
2022-09-16T01:24:52.974Z,9.77
2022-09-16T01:27:54.918Z,9.43
2022-09-16T01:31:02.827Z,9.33
2022-09-16T01:33:45.786Z,9.63
2022-09-16T01:36:40.284Z,11.60
2022-09-16T01:39:26.476Z,10.30
2022-09-16T01:42:18.738Z,9.97
2022-09-16T01:45:01.333Z,10.63
2022-09-16T01:47:41.006Z,11.30
2022-09-16T01:50:22.082Z,10.07
2022-09-16T01:53:04.909Z,10.60
2022-09-16T01:55:43.034Z,13.13
2022-09-16T01:58:23.003Z,11.33
2022-09-16T02:01:02.122Z,10.37
2022-09-16T02:03:42.107Z,10.60
2022-09-16T02:06:20.323Z,11.03
2022-09-16T02:08:57.774Z,10.30
2022-09-16T02:11:28.808Z,10.70
2022-09-16T02:14:08.583Z,10.63
2022-09-16T02:16:43.821Z,10.50
2022-09-16T02:19:23.659Z,11.07
2022-09-16T02:21:59.137Z,11.13
2022-09-16T02:24:34.115Z,12.00
2022-09-16T02:27:09.598Z,12.13
2022-09-16T02:29:47.588Z,11.60
2022-09-16T02:32:20.518Z,13.13
2022-09-16T02:34:55.625Z,11.17
2022-09-16T02:37:33.055Z,12.03
2022-09-16T02:40:08.682Z,12.13
2022-09-16T02:42:38.693Z,11.60
2022-09-16T02:45:11.162Z,9.97
2022-09-16T02:47:54.930Z,11.60
2022-09-16T02:50:37.891Z,10.87
2022-09-16T02:53:27.444Z,11.20
2022-09-16T02:56:06.251Z,13.20
2022-09-16T02:58:37.196Z,11.77
2022-09-16T03:01:07.404Z,10.70
2022-09-16T03:03:37.533Z,10.83
2022-09-16T03:06:23.028Z,12.27
2022-09-16T03:08:55.477Z,13.37
2022-09-16T03:12:20.800Z,12.03
2022-09-16T03:15:33.024Z,12.57
2022-09-16T03:18:26.444Z,10.87
2022-09-16T03:21:06.921Z,12.93
2022-09-16T03:23:50.011Z,11.37
2022-09-16T03:26:36.137Z,11.10
2022-09-16T03:29:19.071Z,11.40
2022-09-16T03:32:00.104Z,12.57
2022-09-16T03:34:38.202Z,11.63
2022-09-16T03:37:12.910Z,10.43
2022-09-16T03:39:50.480Z,10.30
2022-09-16T03:42:20.771Z,10.40
2022-09-16T03:44:51.364Z,11.00
2022-09-16T03:47:21.399Z,12.03
2022-09-16T03:49:51.557Z,12.10
2022-09-16T03:52:21.542Z,10.10
2022-09-16T03:54:54.068Z,11.13
2022-09-16T03:57:24.019Z,12.20
2022-09-16T03:59:54.110Z,11.10
2022-09-16T04:02:24.061Z,11.77
2022-09-16T04:04:54.150Z,11.27
2022-09-16T04:07:24.069Z,10.17
2022-09-16T04:09:56.619Z,11.10
2022-09-16T04:12:26.628Z,10.87
2022-09-16T04:14:56.659Z,12.73
2022-09-16T04:17:27.013Z,11.90
2022-09-16T04:19:56.970Z,12.00
2022-09-16T04:22:26.956Z,12.23
2022-09-16T04:24:59.574Z,12.03
2022-09-16T04:27:29.599Z,12.03
2022-09-16T04:29:59.511Z,12.13
2022-09-16T04:32:29.418Z,13.00
2022-09-16T04:34:59.469Z,13.53
2022-09-16T04:37:32.184Z,12.40
2022-09-16T04:40:05.475Z,12.77
2022-09-16T04:42:35.434Z,14.17
2022-09-16T04:45:05.397Z,13.17
2022-09-16T04:47:35.365Z,13.23
2022-09-16T04:50:05.307Z,13.87
2022-09-16T04:52:35.261Z,13.43
2022-09-16T04:55:09.353Z,14.47
2022-09-16T04:57:39.243Z,13.20
2022-09-16T05:00:12.509Z,13.20
2022-09-16T05:02:42.446Z,14.27
2022-09-16T05:05:12.839Z,12.63
2022-09-16T05:07:42.789Z,15.13
2022-09-16T05:10:15.854Z,13.50
2022-09-16T05:12:49.389Z,14.20
2022-09-16T05:15:19.973Z,16.23
2022-09-16T05:17:51.726Z,14.07
2022-09-16T05:20:21.982Z,13.30
2022-09-16T05:22:53.106Z,13.20
2022-09-16T05:25:25.653Z,12.67
2022-09-16T05:27:55.694Z,15.00
2022-09-16T05:30:26.375Z,14.40
2022-09-16T05:32:57.012Z,14.10
2022-09-16T05:35:27.124Z,15.90
2022-09-16T05:37:57.081Z,15.10
2022-09-16T05:40:30.019Z,13.60
2022-09-16T05:43:00.024Z,14.50
2022-09-16T05:45:32.394Z,13.10
2022-09-16T05:48:02.815Z,13.70
2022-09-16T05:50:32.732Z,14.23
2022-09-16T05:53:02.632Z,13.60
2022-09-16T05:55:35.134Z,14.70
2022-09-16T05:58:05.048Z,16.00
2022-09-16T06:00:35.599Z,14.80
2022-09-16T06:03:05.681Z,14.30
2022-09-16T06:05:35.613Z,15.10
2022-09-16T06:08:05.722Z,13.43
2022-09-16T06:10:41.170Z,15.13
2022-09-16T06:13:11.646Z,14.17
2022-09-16T06:15:41.659Z,11.90
2022-09-16T06:18:15.919Z,12.23
2022-09-16T06:20:45.843Z,11.20
2022-09-16T06:23:15.933Z,12.00
2022-09-16T06:25:48.877Z,10.73
2022-09-16T06:28:19.091Z,9.90
2022-09-16T06:30:49.094Z,10.60
2022-09-16T06:33:19.110Z,12.10
2022-09-16T06:35:49.042Z,11.60
2022-09-16T06:38:19.144Z,10.73
2022-09-16T06:40:51.921Z,11.33
2022-09-16T06:43:21.846Z,11.10
2022-09-16T06:45:51.989Z,11.87
2022-09-16T06:48:22.111Z,11.50
2022-09-16T06:50:52.167Z,10.83
2022-09-16T06:53:22.107Z,8.97
2022-09-16T06:55:54.780Z,9.10
2022-09-16T06:58:24.732Z,8.70
2022-09-16T07:00:55.140Z,7.67
2022-09-16T07:03:25.110Z,7.80
2022-09-16T07:06:03.183Z,8.50
2022-09-16T07:08:34.917Z,8.67
2022-09-16T07:11:10.523Z,8.00
2022-09-16T07:13:40.582Z,8.87
2022-09-16T07:16:17.775Z,9.33
2022-09-16T07:18:49.015Z,9.33
2022-09-16T07:21:24.431Z,9.90
2022-09-16T07:23:58.428Z,8.33
2022-09-16T07:26:33.723Z,7.10
2022-09-16T07:29:06.953Z,7.20
2022-09-16T07:31:40.225Z,6.07
2022-09-16T07:34:13.134Z,6.70
2022-09-16T07:36:45.658Z,7.83
2022-09-16T07:39:18.349Z,7.57
2022-09-16T07:41:51.222Z,7.40
2022-09-16T07:44:22.906Z,7.07
2022-09-16T07:46:53.109Z,6.70
2022-09-16T07:49:23.224Z,7.63
2022-09-16T07:51:53.334Z,7.40
2022-09-16T07:54:23.335Z,8.00
2022-09-16T07:56:55.956Z,8.50
2022-09-16T07:59:25.899Z,7.80
2022-09-16T08:01:55.904Z,7.83
2022-09-16T08:04:25.924Z,7.80
2022-09-16T08:06:55.891Z,7.73
2022-09-16T08:09:37.897Z,6.60
2022-09-16T08:12:12.862Z,7.70
2022-09-16T08:14:42.892Z,7.73
2022-09-16T08:17:12.818Z,7.20
2022-09-16T08:19:42.782Z,7.83
2022-09-16T08:22:12.689Z,8.60
2022-09-16T08:24:42.623Z,7.43
2022-09-16T08:27:15.856Z,6.83
2022-09-16T08:29:45.841Z,6.90
2022-09-16T08:32:15.961Z,6.43
2022-09-16T08:34:45.993Z,7.97
2022-09-16T08:37:15.876Z,7.00
2022-09-16T08:39:45.850Z,5.80
2022-09-16T08:42:40.497Z,6.30
2022-09-16T08:45:23.266Z,6.50
2022-09-16T08:48:10.725Z,6.40
2022-09-16T08:50:45.022Z,5.27
2022-09-16T08:53:24.715Z,5.50
2022-09-16T08:55:55.873Z,6.13
2022-09-16T08:58:36.757Z,6.07
2022-09-16T09:01:18.895Z,8.87
2022-09-16T09:03:51.103Z,6.50
2022-09-16T09:06:46.156Z,8.90
2022-09-16T09:09:34.641Z,7.73
2022-09-16T09:12:15.659Z,9.20
2022-09-16T09:15:07.019Z,8.90
2022-09-16T09:17:55.873Z,9.10
2022-09-16T09:20:47.061Z,8.07
2022-09-16T09:23:36.962Z,9.40
2022-09-16T09:26:16.397Z,6.97
2022-09-16T09:29:22.258Z,7.30
2022-09-16T09:32:07.379Z,8.47
2022-09-16T09:34:55.894Z,7.37
2022-09-16T09:37:46.670Z,7.90
2022-09-16T09:40:25.406Z,7.63
2022-09-16T09:43:07.873Z,8.73
2022-09-16T09:45:43.632Z,9.00
2022-09-16T09:48:25.353Z,8.20
2022-09-16T09:50:58.753Z,8.40
2022-09-16T09:53:35.763Z,8.53
2022-09-16T09:56:19.562Z,8.37
2022-09-16T09:59:03.469Z,8.60
2022-09-16T10:01:33.667Z,8.47
2022-09-16T10:04:15.394Z,9.43
2022-09-16T10:06:47.880Z,8.83
2022-09-16T10:09:20.158Z,7.73
2022-09-16T10:11:55.166Z,7.60
2022-09-16T10:14:33.881Z,7.50
2022-09-16T10:17:06.907Z,8.70
2022-09-16T10:19:54.090Z,7.67
2022-09-16T10:22:29.704Z,7.20
2022-09-16T10:25:02.259Z,7.00
2022-09-16T10:27:36.864Z,7.33
2022-09-16T10:30:18.141Z,6.27
2022-09-16T10:32:59.269Z,6.07
2022-09-16T10:35:35.112Z,5.20
2022-09-16T10:38:15.892Z,5.70
2022-09-16T10:40:55.625Z,4.83
2022-09-16T10:43:28.179Z,5.40
2022-09-16T10:45:58.978Z,5.17
2022-09-16T10:48:33.937Z,3.63
2022-09-16T10:51:09.188Z,4.10
2022-09-16T10:53:44.395Z,4.00
2022-09-16T10:56:23.727Z,4.00
2022-09-16T10:59:06.106Z,4.40
2022-09-16T11:01:48.701Z,4.57
2022-09-16T11:04:46.901Z,4.30
2022-09-16T11:07:37.486Z,4.77
2022-09-16T11:10:20.335Z,5.77
2022-09-16T11:13:23.605Z,3.83
2022-09-16T11:16:11.709Z,4.70
2022-09-16T11:18:58.973Z,4.93
2022-09-16T11:21:56.988Z,4.53
2022-09-16T11:25:08.190Z,4.80
2022-09-16T11:27:51.886Z,3.70
2022-09-16T11:30:24.945Z,4.00
2022-09-16T11:33:22.362Z,4.40
2022-09-16T11:36:34.329Z,4.50
2022-09-16T11:39:23.758Z,3.90
2022-09-16T11:42:07.050Z,4.10
2022-09-16T11:44:49.436Z,4.60
2022-09-16T11:47:51.735Z,4.10
2022-09-16T11:50:43.248Z,4.47
2022-09-16T11:53:44.120Z,3.90
2022-09-16T11:56:21.500Z,3.53
2022-09-16T11:59:00.137Z,3.87
2022-09-16T12:01:40.252Z,3.90
2022-09-16T12:04:18.912Z,3.57
2022-09-16T12:07:01.210Z,3.40
2022-09-16T12:09:42.366Z,3.20
2022-09-16T12:12:17.544Z,2.93
2022-09-16T12:15:00.894Z,3.00
2022-09-16T12:17:37.531Z,3.40
2022-09-16T12:20:18.301Z,3.17
2022-09-16T12:22:54.614Z,2.33
2022-09-16T12:25:31.473Z,3.90
2022-09-16T12:28:10.496Z,2.37
2022-09-16T12:30:49.326Z,2.07
2022-09-16T12:33:27.032Z,2.20
2022-09-16T12:36:04.277Z,2.87
2022-09-16T12:38:34.667Z,2.00
2022-09-16T12:41:34.687Z,3.00
2022-09-16T12:44:46.298Z,2.40
2022-09-16T12:47:51.728Z,2.60
2022-09-16T12:50:55.236Z,3.30
2022-09-16T12:53:56.371Z,2.87
2022-09-16T12:56:46.294Z,3.37
2022-09-16T12:59:45.107Z,2.90
2022-09-16T13:02:24.188Z,2.90
2022-09-16T13:04:58.942Z,2.90
2022-09-16T13:07:35.316Z,2.50
2022-09-16T13:10:08.749Z,2.63
2022-09-16T13:12:44.010Z,2.40
2022-09-16T13:15:29.902Z,2.93
2022-09-16T13:18:12.665Z,2.50
2022-09-16T13:20:50.649Z,2.80
2022-09-16T13:23:26.543Z,2.80
2022-09-16T13:26:02.570Z,2.80
2022-09-16T13:28:41.761Z,2.60
2022-09-16T13:31:34.349Z,2.37
2022-09-16T13:34:21.140Z,3.20
2022-09-16T13:36:51.375Z,2.77
2022-09-16T13:39:33.692Z,5.63
2022-09-16T13:42:21.096Z,2.90
2022-09-16T13:44:51.508Z,3.00
2022-09-16T13:47:40.339Z,3.27
2022-09-16T13:50:19.460Z,3.17
2022-09-16T13:52:50.678Z,3.03
2022-09-16T13:55:27.678Z,2.93
2022-09-16T13:58:07.079Z,2.57
2022-09-16T14:00:49.979Z,3.87
2022-09-16T14:03:53.231Z,3.10
2022-09-16T14:06:54.770Z,3.70
2022-09-16T14:09:45.973Z,3.60
2022-09-16T14:12:27.382Z,2.77
2022-09-16T14:15:01.106Z,3.27
2022-09-16T14:17:41.890Z,3.10
2022-09-16T14:20:18.975Z,3.20
2022-09-16T14:23:05.093Z,2.90
2022-09-16T14:25:39.105Z,2.83
2022-09-16T14:28:24.157Z,2.50
2022-09-16T14:30:58.194Z,3.13
2022-09-16T14:33:33.859Z,3.13
2022-09-16T14:36:13.581Z,3.30
2022-09-16T14:38:52.265Z,3.80
2022-09-16T14:41:29.716Z,2.53
2022-09-16T14:44:11.502Z,2.57
2022-09-16T14:46:47.883Z,3.00
2022-09-16T14:49:20.185Z,2.77
2022-09-16T14:51:57.868Z,2.20
2022-09-16T14:54:31.227Z,2.67
2022-09-16T14:57:03.438Z,2.43
2022-09-16T14:59:38.153Z,2.93
2022-09-16T15:02:19.600Z,2.47
2022-09-16T15:04:56.884Z,3.47
2022-09-16T15:07:46.028Z,2.70
2022-09-16T15:10:49.976Z,3.30
2022-09-16T15:13:27.028Z,2.63
2022-09-16T15:16:02.577Z,2.23
2022-09-16T15:18:36.298Z,2.47
2022-09-16T15:21:13.328Z,2.70
2022-09-16T15:23:50.858Z,2.87
2022-09-16T15:26:27.367Z,2.60
2022-09-16T15:29:01.352Z,2.87
2022-09-16T15:31:40.440Z,2.90
2022-09-16T15:34:26.701Z,2.17
2022-09-16T15:37:05.264Z,3.00
2022-09-16T15:39:37.799Z,3.10
2022-09-16T15:42:20.554Z,2.73
2022-09-16T15:44:53.815Z,2.30
2022-09-16T15:47:29.004Z,2.43
2022-09-16T15:50:05.104Z,2.60
2022-09-16T15:52:51.833Z,2.50
2022-09-16T15:55:37.979Z,2.73
2022-09-16T15:58:20.263Z,2.50
2022-09-16T16:01:03.436Z,2.27
2022-09-16T16:03:40.363Z,3.40
2022-09-16T16:06:10.425Z,2.90
2022-09-16T16:08:46.054Z,2.93
2022-09-16T16:11:19.253Z,2.43
2022-09-16T16:13:53.232Z,3.37
2022-09-16T16:16:23.585Z,2.07
2022-09-16T16:18:53.649Z,2.33
2022-09-16T16:21:23.628Z,2.40
2022-09-16T16:23:53.932Z,2.83
2022-09-16T16:26:24.838Z,2.60
2022-09-16T16:28:57.311Z,2.80
2022-09-16T16:31:27.367Z,3.20
2022-09-16T16:33:58.102Z,2.10
2022-09-16T16:36:28.193Z,2.70
2022-09-16T16:38:58.248Z,2.30
2022-09-16T16:41:28.318Z,3.03
2022-09-16T16:44:00.786Z,2.60
2022-09-16T16:46:32.689Z,2.70
2022-09-16T16:49:02.796Z,2.67
2022-09-16T16:51:32.765Z,2.97
2022-09-16T16:54:03.635Z,2.87
2022-09-16T16:56:33.658Z,2.30
2022-09-16T16:59:06.176Z,2.40
2022-09-16T17:01:36.203Z,2.37
2022-09-16T17:04:07.347Z,3.50
2022-09-16T17:06:38.603Z,2.30
2022-09-16T17:09:15.889Z,2.60
2022-09-16T17:11:55.597Z,2.60
2022-09-16T17:14:30.971Z,2.70
2022-09-16T17:17:02.706Z,3.03
2022-09-16T17:19:32.818Z,3.23
2022-09-16T17:22:03.100Z,2.20
2022-09-16T17:24:34.721Z,2.47
2022-09-16T17:27:05.086Z,2.70
2022-09-16T17:29:37.640Z,3.20
2022-09-16T17:32:08.182Z,2.70
2022-09-16T17:34:38.080Z,3.03
2022-09-16T17:37:08.527Z,2.70
2022-09-16T17:39:38.697Z,2.47
2022-09-16T17:42:09.194Z,1.77
2022-09-16T17:44:42.585Z,2.03
2022-09-16T17:47:12.721Z,2.60
2022-09-16T17:49:42.670Z,2.20
2022-09-16T17:52:12.586Z,2.03
2022-09-16T17:54:43.084Z,1.67
2022-09-16T17:57:13.051Z,1.97
2022-09-16T17:59:45.553Z,1.87
2022-09-16T18:02:15.840Z,2.50
2022-09-16T18:04:47.888Z,2.50
2022-09-16T18:07:17.958Z,1.67
2022-09-16T18:09:47.961Z,2.00
2022-09-16T18:12:17.990Z,3.03
2022-09-16T18:14:50.518Z,3.53
2022-09-16T18:17:20.452Z,2.67
2022-09-16T18:19:50.451Z,2.70
2022-09-16T18:22:20.370Z,2.97
2022-09-16T18:24:50.571Z,3.17
2022-09-16T18:27:20.613Z,2.97
2022-09-16T18:29:53.282Z,3.40
2022-09-16T18:32:23.228Z,2.93
2022-09-16T18:34:53.658Z,2.77
2022-09-16T18:37:24.369Z,3.00
2022-09-16T18:39:54.363Z,3.40
2022-09-16T18:42:24.310Z,3.00
2022-09-16T18:44:56.787Z,4.00
2022-09-16T18:47:26.813Z,3.40
2022-09-16T18:49:56.747Z,3.73
2022-09-16T18:52:26.810Z,3.97
2022-09-16T18:54:57.215Z,3.67
2022-09-16T18:57:27.372Z,3.17
2022-09-16T18:59:59.893Z,3.30
2022-09-16T19:02:29.943Z,3.90
2022-09-16T19:05:00.052Z,4.10
2022-09-16T19:07:30.165Z,5.50
2022-09-16T19:10:00.135Z,4.70
2022-09-16T19:12:30.142Z,4.20
2022-09-16T19:15:02.617Z,5.47
2022-09-16T19:17:33.179Z,4.40
2022-09-16T19:20:03.346Z,5.87
2022-09-16T19:22:33.251Z,5.90
2022-09-16T19:25:03.198Z,4.73
2022-09-16T19:27:33.856Z,5.10
2022-09-16T19:30:07.743Z,4.97
2022-09-16T19:32:38.093Z,3.87
2022-09-16T19:35:10.418Z,3.30
2022-09-16T19:37:40.432Z,3.17
2022-09-16T19:40:11.852Z,3.73
2022-09-16T19:42:41.905Z,3.53
2022-09-16T19:45:14.492Z,2.93
2022-09-16T19:47:44.588Z,3.03
2022-09-16T19:50:14.676Z,3.40
2022-09-16T19:52:44.638Z,3.93
2022-09-16T19:55:14.563Z,3.77
2022-09-16T19:57:44.523Z,3.00
2022-09-16T20:00:18.346Z,3.33
2022-09-16T20:02:48.882Z,3.27
2022-09-16T20:05:19.081Z,2.20
2022-09-16T20:07:49.019Z,3.30
2022-09-16T20:10:19.250Z,2.73
2022-09-16T20:12:49.164Z,2.57
2022-09-16T20:15:22.416Z,2.60
2022-09-16T20:17:52.343Z,2.10
2022-09-16T20:20:22.603Z,2.30
2022-09-16T20:22:52.535Z,1.87
2022-09-16T20:25:23.694Z,2.37
2022-09-16T20:27:53.761Z,2.57
2022-09-16T20:30:26.349Z,2.17
2022-09-16T20:32:56.320Z,3.00
2022-09-16T20:35:26.294Z,3.00
2022-09-16T20:37:56.390Z,2.20
2022-09-16T20:40:26.472Z,2.60
2022-09-16T20:42:56.501Z,2.67
2022-09-16T20:45:29.235Z,2.60
2022-09-16T20:47:59.329Z,3.07
2022-09-16T20:50:29.334Z,2.53
2022-09-16T20:52:59.342Z,2.53
2022-09-16T20:55:29.492Z,2.90
2022-09-16T20:57:59.452Z,2.73
2022-09-16T21:00:33.708Z,2.40
2022-09-16T21:03:03.652Z,2.60
2022-09-16T21:05:33.602Z,2.70
2022-09-16T21:08:03.844Z,2.23
2022-09-16T21:10:36.060Z,2.73
2022-09-16T21:13:06.587Z,2.50
2022-09-16T21:15:39.101Z,2.60
2022-09-16T21:18:09.768Z,2.67
2022-09-16T21:20:41.246Z,2.57
2022-09-16T21:23:11.227Z,2.23
2022-09-16T21:25:41.929Z,2.40
2022-09-16T21:28:11.870Z,2.57
2022-09-16T21:30:44.340Z,2.70
2022-09-16T21:33:17.833Z,3.20
2022-09-16T21:35:54.685Z,2.40
2022-09-16T21:38:24.795Z,2.80
2022-09-16T21:41:00.015Z,3.30
2022-09-16T21:43:33.450Z,2.53
2022-09-16T21:46:06.629Z,2.67
2022-09-16T21:48:37.562Z,3.33
2022-09-16T21:51:10.693Z,2.53
2022-09-16T21:53:42.669Z,2.93
2022-09-16T21:56:15.705Z,2.80
2022-09-16T21:58:46.263Z,2.90
2022-09-16T22:01:22.193Z,2.07
2022-09-16T22:04:02.580Z,2.37
2022-09-16T22:06:33.458Z,2.13
2022-09-16T22:09:07.799Z,1.60
2022-09-16T22:11:40.890Z,1.70
2022-09-16T22:14:11.739Z,1.67
2022-09-16T22:16:44.659Z,1.60
2022-09-16T22:19:20.728Z,1.90
2022-09-16T22:21:53.162Z,2.07
2022-09-16T22:24:23.546Z,1.60
2022-09-16T22:26:54.639Z,1.87
2022-09-16T22:29:24.576Z,1.73
2022-09-16T22:31:57.213Z,1.37
2022-09-16T22:34:27.140Z,2.90
2022-09-16T22:36:57.092Z,1.47
2022-09-16T22:39:27.012Z,1.57
2022-09-16T22:41:57.047Z,1.30
2022-09-16T22:44:27.091Z,1.60
2022-09-16T22:46:59.621Z,1.40
2022-09-16T22:49:29.553Z,1.70
2022-09-16T22:51:59.522Z,1.40
2022-09-16T22:54:29.750Z,1.40
2022-09-16T22:56:59.644Z,1.40
2022-09-16T22:59:30.559Z,1.37
2022-09-16T23:02:03.310Z,1.60
2022-09-16T23:04:33.693Z,1.67
2022-09-16T23:07:03.869Z,1.37
2022-09-16T23:09:35.792Z,1.60
2022-09-16T23:12:07.367Z,1.40
2022-09-16T23:14:37.285Z,1.50
2022-09-16T23:17:09.830Z,1.67
2022-09-16T23:19:39.752Z,1.20
2022-09-16T23:22:09.908Z,1.47
2022-09-16T23:24:39.955Z,1.57
2022-09-16T23:27:09.873Z,1.70
2022-09-16T23:29:39.796Z,1.53
2022-09-16T23:32:12.348Z,1.50
2022-09-16T23:34:42.341Z,1.10
2022-09-16T23:37:12.358Z,3.10
2022-09-16T23:39:42.298Z,1.50
2022-09-16T23:42:12.941Z,1.37
2022-09-16T23:44:42.962Z,1.57
2022-09-16T23:47:15.594Z,1.27
2022-09-16T23:49:45.554Z,1.30
2022-09-16T23:52:15.481Z,1.10
2022-09-16T23:54:45.697Z,1.10
2022-09-16T23:57:15.679Z,1.20
2022-09-16T23:59:45.680Z,1.20
